createdAt,value
2023-01-10T00:00:16.675Z,13.58
2023-01-10T00:02:48.620Z,13.43
2023-01-10T00:05:19.570Z,13.70
2023-01-10T00:07:50.069Z,13.62
2023-01-10T00:10:20.678Z,14.13
2023-01-10T00:13:08.967Z,14.10
2023-01-10T00:15:40.267Z,12.82
2023-01-10T00:18:10.867Z,13.28
2023-01-10T00:20:41.406Z,13.03
2023-01-10T00:23:11.904Z,12.90
2023-01-10T00:25:42.824Z,13.58
2023-01-10T00:28:23.815Z,13.70
2023-01-10T00:30:58.269Z,13.85
2023-01-10T00:33:31.391Z,14.20
2023-01-10T00:36:02.225Z,12.95
2023-01-10T00:38:36.412Z,13.50
2023-01-10T00:41:11.363Z,13.03
2023-01-10T00:43:59.862Z,12.35
2023-01-10T00:46:30.974Z,13.58
2023-01-10T00:49:02.167Z,12.78
2023-01-10T00:51:32.653Z,13.30
2023-01-10T00:54:03.185Z,12.85
2023-01-10T00:56:33.696Z,13.85
2023-01-10T00:59:04.253Z,12.98
2023-01-10T01:01:35.455Z,14.00
2023-01-10T01:04:06.165Z,13.72
2023-01-10T01:06:37.180Z,13.15
2023-01-10T01:09:07.712Z,13.62
2023-01-10T01:11:38.243Z,13.45
2023-01-10T01:14:08.782Z,12.93
2023-01-10T01:16:39.369Z,13.03
2023-01-10T01:19:09.959Z,12.68
2023-01-10T01:21:40.551Z,12.28
2023-01-10T01:24:12.262Z,12.50
2023-01-10T01:26:42.902Z,14.25
2023-01-10T01:29:13.453Z,14.03
2023-01-10T01:31:44.028Z,14.68
2023-01-10T01:34:14.871Z,16.05
2023-01-10T01:36:45.474Z,14.15
2023-01-10T01:39:15.996Z,13.75
2023-01-10T01:41:58.823Z,13.53
2023-01-10T01:44:34.737Z,13.32
2023-01-10T01:47:11.171Z,13.50
2023-01-10T01:49:44.283Z,13.32
2023-01-10T01:52:17.740Z,13.25
2023-01-10T01:54:48.262Z,13.80
2023-01-10T01:57:21.702Z,14.43
2023-01-10T01:59:56.294Z,13.80
2023-01-10T02:02:29.834Z,13.18
2023-01-10T02:05:03.484Z,14.83
2023-01-10T02:07:37.604Z,14.80
2023-01-10T02:10:11.038Z,14.85
2023-01-10T02:12:41.795Z,14.53
2023-01-10T02:15:13.123Z,15.25
2023-01-10T02:17:43.788Z,15.30
2023-01-10T02:20:15.204Z,16.65
2023-01-10T02:23:12.761Z,17.98
2023-01-10T02:26:05.623Z,18.75
2023-01-10T02:28:55.678Z,17.90
2023-01-10T02:31:57.500Z,16.75
2023-01-10T02:34:48.950Z,15.85
2023-01-10T02:37:27.949Z,15.60
2023-01-10T02:40:19.102Z,17.20
2023-01-10T02:43:01.526Z,16.95
2023-01-10T02:45:52.943Z,17.05
2023-01-10T02:48:23.632Z,17.05
2023-01-10T02:50:59.767Z,17.60
2023-01-10T02:53:36.131Z,18.15
2023-01-10T02:56:18.817Z,18.40
2023-01-10T02:59:17.712Z,17.65
2023-01-10T03:02:06.162Z,16.87
2023-01-10T03:04:45.812Z,17.73
2023-01-10T03:07:37.185Z,17.12
2023-01-10T03:10:10.578Z,18.15
2023-01-10T03:12:57.299Z,18.65
2023-01-10T03:15:30.672Z,20.55
2023-01-10T03:18:03.803Z,20.85
2023-01-10T03:20:37.035Z,21.52
2023-01-10T03:23:08.384Z,20.25
2023-01-10T03:25:41.269Z,20.60
2023-01-10T03:28:23.763Z,20.17
2023-01-10T03:30:57.200Z,21.42
2023-01-10T03:33:30.732Z,20.80
2023-01-10T03:36:26.411Z,20.72
2023-01-10T03:39:17.942Z,20.72
2023-01-10T03:42:13.377Z,19.75
2023-01-10T03:44:52.989Z,20.35
2023-01-10T03:47:38.400Z,19.20
2023-01-10T03:50:14.992Z,19.77
2023-01-10T03:52:46.450Z,20.08
2023-01-10T03:55:19.204Z,20.15
2023-01-10T03:57:49.730Z,21.07
2023-01-10T04:00:20.902Z,20.37
2023-01-10T04:02:51.403Z,19.73
2023-01-10T04:05:22.037Z,20.32
2023-01-10T04:07:52.597Z,20.75
2023-01-10T04:10:25.306Z,21.42
2023-01-10T04:12:55.877Z,20.60
2023-01-10T04:15:26.395Z,19.92
2023-01-10T04:17:58.005Z,21.48
2023-01-10T04:20:28.532Z,21.90
2023-01-10T04:22:59.064Z,20.60
2023-01-10T04:25:29.621Z,20.65
2023-01-10T04:28:00.141Z,22.10
2023-01-10T04:30:30.613Z,20.80
2023-01-10T04:33:01.151Z,20.85
2023-01-10T04:35:31.658Z,21.42
2023-01-10T04:38:02.185Z,24.67
2023-01-10T04:40:32.711Z,24.45
2023-01-10T04:43:03.295Z,25.97
2023-01-10T04:45:33.841Z,25.52
2023-01-10T04:48:04.724Z,23.57
2023-01-10T04:50:35.255Z,25.55
2023-01-10T04:53:05.820Z,24.63
2023-01-10T04:55:36.560Z,25.90
2023-01-10T04:58:07.121Z,26.25
2023-01-10T05:00:37.864Z,27.30
2023-01-10T05:03:08.643Z,30.05
2023-01-10T05:05:39.205Z,29.23
2023-01-10T05:08:09.734Z,28.92
2023-01-10T05:10:40.287Z,28.75
2023-01-10T05:13:10.804Z,28.38
2023-01-10T05:15:41.337Z,27.67
2023-01-10T05:18:12.820Z,27.07
2023-01-10T05:20:43.376Z,24.60
2023-01-10T05:23:13.922Z,25.17
2023-01-10T05:25:44.955Z,24.75
2023-01-10T05:28:15.496Z,24.65
2023-01-10T05:30:46.113Z,23.38
2023-01-10T05:33:16.631Z,24.32
2023-01-10T05:35:47.171Z,23.98
2023-01-10T05:38:17.677Z,24.63
2023-01-10T05:40:48.236Z,23.60
2023-01-10T05:43:18.732Z,22.73
2023-01-10T05:45:49.265Z,23.30
2023-01-10T05:48:20.327Z,24.92
2023-01-10T05:50:53.974Z,24.75
2023-01-10T05:53:24.570Z,26.87
2023-01-10T05:55:56.478Z,25.72
2023-01-10T05:58:27.706Z,26.75
2023-01-10T06:00:59.217Z,25.68
2023-01-10T06:03:30.777Z,25.35
2023-01-10T06:06:02.896Z,26.50
2023-01-10T06:08:33.515Z,26.65
2023-01-10T06:11:06.315Z,27.00
2023-01-10T06:13:37.056Z,27.10
2023-01-10T06:16:08.045Z,27.20
2023-01-10T06:18:38.559Z,26.02
2023-01-10T06:21:09.102Z,26.82
2023-01-10T06:23:39.769Z,26.77
2023-01-10T06:26:10.537Z,26.87
2023-01-10T06:28:42.032Z,28.15
2023-01-10T06:31:14.391Z,29.65
2023-01-10T06:33:44.931Z,28.42
2023-01-10T06:36:16.534Z,28.07
2023-01-10T06:38:47.159Z,28.47
2023-01-10T06:41:17.868Z,28.12
2023-01-10T06:43:50.314Z,27.58
2023-01-10T06:46:22.270Z,26.33
2023-01-10T06:48:52.816Z,26.07
2023-01-10T06:51:23.327Z,25.50
2023-01-10T06:53:53.844Z,24.87
2023-01-10T06:56:24.394Z,25.45
2023-01-10T06:58:54.923Z,27.15
2023-01-10T07:01:25.574Z,24.82
2023-01-10T07:03:56.377Z,24.37
2023-01-10T07:06:26.965Z,25.10
2023-01-10T07:08:57.728Z,24.55
2023-01-10T07:11:28.258Z,25.12
2023-01-10T07:13:58.778Z,24.10
2023-01-10T07:16:29.557Z,22.82
2023-01-10T07:19:01.803Z,26.30
2023-01-10T07:21:32.381Z,26.45
2023-01-10T07:24:03.135Z,25.27
2023-01-10T07:26:33.658Z,26.80
2023-01-10T07:29:05.361Z,26.00
2023-01-10T07:31:35.946Z,26.17
2023-01-10T07:34:06.511Z,25.88
2023-01-10T07:36:39.390Z,25.90
2023-01-10T07:39:09.811Z,24.98
2023-01-10T07:41:40.345Z,24.45
2023-01-10T07:44:10.842Z,25.02
2023-01-10T07:46:41.364Z,25.77
2023-01-10T07:49:11.879Z,24.40
2023-01-10T07:51:42.379Z,25.90
2023-01-10T07:54:14.793Z,24.90
2023-01-10T07:56:46.794Z,22.90
2023-01-10T07:59:17.339Z,23.38
2023-01-10T08:01:48.890Z,24.05
2023-01-10T08:04:19.452Z,23.35
2023-01-10T08:06:49.964Z,24.30
2023-01-10T08:09:20.514Z,24.98
2023-01-10T08:11:51.059Z,24.47
2023-01-10T08:14:21.684Z,24.47
2023-01-10T08:16:52.285Z,23.18
2023-01-10T08:19:22.814Z,22.52
2023-01-10T08:21:53.330Z,22.82
2023-01-10T08:24:23.897Z,21.85
2023-01-10T08:26:54.430Z,21.70
2023-01-10T08:29:26.255Z,23.98
2023-01-10T08:31:56.790Z,22.45
2023-01-10T08:34:27.547Z,21.75
2023-01-10T08:36:58.063Z,21.97
2023-01-10T08:39:30.888Z,20.95
2023-01-10T08:42:01.453Z,20.10
2023-01-10T08:44:32.099Z,21.42
2023-01-10T08:47:02.897Z,20.90
2023-01-10T08:49:33.450Z,22.25
2023-01-10T08:52:04.076Z,22.17
2023-01-10T08:54:34.776Z,21.33
2023-01-10T08:57:05.342Z,21.40
2023-01-10T08:59:35.929Z,20.15
2023-01-10T09:02:08.076Z,21.20
2023-01-10T09:04:38.636Z,20.82
2023-01-10T09:07:09.156Z,20.40
2023-01-10T09:09:39.699Z,19.75
2023-01-10T09:12:11.793Z,20.23
2023-01-10T09:14:42.479Z,20.12
2023-01-10T09:17:12.996Z,19.37
2023-01-10T09:19:43.580Z,19.55
2023-01-10T09:22:14.109Z,18.92
2023-01-10T09:24:44.685Z,18.37
2023-01-10T09:27:16.378Z,16.37
2023-01-10T09:29:46.873Z,18.02
2023-01-10T09:32:17.420Z,18.80
2023-01-10T09:34:48.954Z,18.95
2023-01-10T09:37:19.499Z,18.02
2023-01-10T09:39:50.000Z,17.42
2023-01-10T09:42:44.508Z,16.97
2023-01-10T09:45:17.933Z,15.35
2023-01-10T09:47:55.591Z,15.35
2023-01-10T09:50:49.300Z,15.30
2023-01-10T09:53:25.939Z,14.53
2023-01-10T09:56:00.142Z,15.25
2023-01-10T09:58:34.684Z,14.20
2023-01-10T10:01:17.246Z,14.73
2023-01-10T10:04:07.211Z,15.70
2023-01-10T10:06:37.886Z,13.95
2023-01-10T10:09:10.256Z,16.02
2023-01-10T10:11:56.491Z,15.68
2023-01-10T10:14:46.136Z,15.35
2023-01-10T10:17:35.921Z,15.80
2023-01-10T10:20:30.653Z,15.98
2023-01-10T10:23:34.476Z,15.75
2023-01-10T10:26:07.543Z,16.27
2023-01-10T10:28:57.459Z,16.37
2023-01-10T10:31:53.656Z,17.20
2023-01-10T10:37:05.736Z,17.05
2023-01-10T10:39:47.744Z,18.92
2023-01-10T10:42:19.970Z,20.12
2023-01-10T10:44:59.847Z,18.55
2023-01-10T10:47:35.597Z,18.25
2023-01-10T10:50:11.784Z,18.62
2023-01-10T10:52:45.358Z,19.40
2023-01-10T10:55:23.559Z,19.12
2023-01-10T10:58:00.172Z,19.32
2023-01-10T11:00:27.550Z,18.82
2023-01-10T11:03:07.323Z,19.70
2023-01-10T11:05:40.806Z,18.85
2023-01-10T11:08:14.085Z,20.17
2023-01-10T11:11:00.141Z,20.90
2023-01-10T11:13:38.804Z,20.97
2023-01-10T11:16:12.851Z,20.70
2023-01-10T11:18:45.678Z,20.60
2023-01-10T11:21:21.244Z,19.07
2023-01-10T11:23:59.001Z,18.90
2023-01-10T11:26:35.498Z,18.12
2023-01-10T11:29:35.077Z,18.95
2023-01-10T11:32:14.229Z,18.62
2023-01-10T11:34:59.338Z,19.98
2023-01-10T11:37:34.656Z,19.25
2023-01-10T11:40:25.985Z,19.73
2023-01-10T11:42:59.510Z,18.80
2023-01-10T11:45:32.641Z,18.10
2023-01-10T11:48:34.256Z,18.42
2023-01-10T11:50:56.767Z,17.85
2023-01-10T11:53:38.971Z,17.62
2023-01-10T11:56:14.898Z,18.48
2023-01-10T11:58:45.404Z,18.12
2023-01-10T12:01:28.166Z,17.45
2023-01-10T12:03:59.404Z,17.15
2023-01-10T12:06:30.348Z,19.73
2023-01-10T12:09:00.878Z,19.20
2023-01-10T12:11:35.513Z,19.10
2023-01-10T12:14:08.934Z,18.43
2023-01-10T12:16:40.326Z,17.77
2023-01-10T12:19:13.543Z,18.70
2023-01-10T12:21:46.185Z,19.10
2023-01-10T12:24:25.173Z,19.02
2023-01-10T12:26:56.541Z,21.90
2023-01-10T12:29:30.017Z,20.97
2023-01-10T12:32:02.272Z,20.20
2023-01-10T12:34:38.428Z,19.95
2023-01-10T12:37:21.784Z,19.02
2023-01-10T12:39:55.207Z,19.77
2023-01-10T12:42:56.345Z,18.83
2023-01-10T12:45:32.663Z,18.30
2023-01-10T12:48:20.767Z,20.30
2023-01-10T12:50:59.983Z,21.57
2023-01-10T12:53:37.486Z,21.02
2023-01-10T12:56:10.209Z,20.95
2023-01-10T12:58:44.267Z,21.55
2023-01-10T13:01:17.905Z,20.45
2023-01-10T13:03:51.426Z,20.70
2023-01-10T13:06:24.858Z,21.27
2023-01-10T13:08:58.263Z,21.73
2023-01-10T13:11:31.704Z,21.45
2023-01-10T13:14:05.242Z,23.00
2023-01-10T13:16:53.627Z,21.80
2023-01-10T13:19:27.180Z,23.02
2023-01-10T13:22:21.927Z,23.90
2023-01-10T13:24:58.691Z,23.40
2023-01-10T13:27:32.135Z,23.52
2023-01-10T13:30:05.635Z,22.17
2023-01-10T13:32:39.675Z,22.93
2023-01-10T13:35:16.082Z,23.83
2023-01-10T13:37:49.507Z,24.70
2023-01-10T13:40:27.538Z,24.37
2023-01-10T13:43:21.363Z,25.88
2023-01-10T13:45:54.838Z,22.77
2023-01-10T13:48:28.722Z,23.98
2023-01-10T13:51:01.778Z,22.35
2023-01-10T13:53:37.931Z,21.85
2023-01-10T13:56:11.401Z,21.20
2023-01-10T13:59:01.027Z,20.85
2023-01-10T14:01:58.674Z,23.55
2023-01-10T14:04:32.221Z,26.62
2023-01-10T14:07:29.458Z,23.80
2023-01-10T14:10:08.438Z,20.70
2023-01-10T14:12:44.431Z,21.00
2023-01-10T14:15:26.542Z,18.80
2023-01-10T14:18:22.327Z,18.00
2023-01-10T14:21:01.965Z,17.10
2023-01-10T14:23:44.072Z,17.57
2023-01-10T14:26:18.719Z,15.45
2023-01-10T14:28:51.076Z,16.37
2023-01-10T14:31:25.512Z,16.17
2023-01-10T14:33:58.344Z,15.58
2023-01-10T14:36:34.536Z,14.70
2023-01-10T14:39:07.964Z,15.98
2023-01-10T14:41:42.380Z,14.95
2023-01-10T14:44:25.198Z,16.35
2023-01-10T14:46:58.788Z,18.80
2023-01-10T14:49:33.343Z,17.82
2023-01-10T14:52:22.625Z,18.27
2023-01-10T14:55:12.363Z,18.48
2023-01-10T14:57:44.446Z,18.73
2023-01-10T15:00:18.051Z,17.50
2023-01-10T15:02:50.226Z,16.95
2023-01-10T15:05:27.603Z,16.97
2023-01-10T15:08:17.384Z,16.27
2023-01-10T15:10:51.951Z,16.93
2023-01-10T15:13:26.534Z,19.57
2023-01-10T15:15:57.914Z,20.50
2023-01-10T15:18:43.527Z,20.82
2023-01-10T15:21:18.340Z,19.65
2023-01-10T15:23:50.158Z,22.05
2023-01-10T15:26:29.483Z,21.00
2023-01-10T15:29:17.192Z,20.35
2023-01-10T15:31:47.946Z,17.42
2023-01-10T15:34:24.549Z,17.25
2023-01-10T15:36:57.984Z,15.55
2023-01-10T15:39:34.408Z,17.17
2023-01-10T15:42:10.676Z,18.15
2023-01-10T15:44:45.394Z,18.85
2023-01-10T15:47:38.852Z,17.52
2023-01-10T15:50:27.124Z,18.52
2023-01-10T15:53:02.976Z,18.35
2023-01-10T15:55:48.374Z,21.57
2023-01-10T15:58:21.854Z,22.25
2023-01-10T16:00:54.203Z,21.73
2023-01-10T16:03:37.017Z,19.87
2023-01-10T16:06:10.097Z,20.20
2023-01-10T16:08:40.714Z,18.27
2023-01-10T16:11:14.205Z,17.45
2023-01-10T16:13:44.731Z,16.85
2023-01-10T16:16:18.279Z,17.15
2023-01-10T16:18:48.928Z,17.23
2023-01-10T16:21:21.276Z,18.05
2023-01-10T16:23:51.797Z,18.57
2023-01-10T16:26:22.459Z,17.87
2023-01-10T16:28:53.099Z,18.20
2023-01-10T16:31:23.690Z,19.62
2023-01-10T16:33:54.254Z,18.15
2023-01-10T16:36:24.758Z,19.10
2023-01-10T16:38:56.583Z,19.12
2023-01-10T16:41:44.615Z,18.98
2023-01-10T16:44:15.149Z,19.27
2023-01-10T16:46:45.759Z,17.15
2023-01-10T16:49:17.874Z,17.60
2023-01-10T16:51:50.076Z,17.77
2023-01-10T16:54:22.930Z,18.00
2023-01-10T16:56:53.543Z,17.87
2023-01-10T16:59:25.345Z,18.85
2023-01-10T17:01:58.614Z,18.02
2023-01-10T17:04:32.309Z,17.98
2023-01-10T17:07:02.878Z,16.50
2023-01-10T17:09:34.489Z,17.25
2023-01-10T17:12:07.996Z,16.93
2023-01-10T17:14:39.945Z,17.82
2023-01-10T17:17:13.274Z,16.57
2023-01-10T17:19:44.739Z,17.48
2023-01-10T17:22:15.979Z,16.85
2023-01-10T17:24:46.514Z,16.95
2023-01-10T17:27:17.036Z,16.95
2023-01-10T17:29:47.555Z,16.73
2023-01-10T17:32:18.119Z,16.42
2023-01-10T17:34:48.621Z,16.27
2023-01-10T17:37:19.187Z,17.25
2023-01-10T17:39:50.010Z,16.73
2023-01-10T17:42:22.903Z,16.52
2023-01-10T17:44:54.664Z,15.43
2023-01-10T17:47:26.178Z,16.10
2023-01-10T17:49:56.720Z,17.02
2023-01-10T17:52:27.275Z,17.15
2023-01-10T17:54:59.625Z,15.88
2023-01-10T17:57:30.249Z,16.00
2023-01-10T18:00:01.848Z,15.90
2023-01-10T18:02:32.634Z,16.12
2023-01-10T18:05:03.267Z,15.53
2023-01-10T18:07:33.851Z,15.23
2023-01-10T18:10:05.653Z,15.48
2023-01-10T18:12:37.587Z,15.53
2023-01-10T18:15:08.856Z,15.05
2023-01-10T18:17:39.528Z,14.87
2023-01-10T18:20:11.129Z,15.10
2023-01-10T18:22:59.453Z,14.28
2023-01-10T18:25:29.957Z,13.18
2023-01-10T18:28:00.742Z,14.03
2023-01-10T18:30:31.315Z,13.25
2023-01-10T18:33:01.942Z,13.43
2023-01-10T18:35:32.559Z,12.40
2023-01-10T18:38:03.147Z,12.60
2023-01-10T18:40:33.647Z,12.30
2023-01-10T18:43:04.223Z,12.78
2023-01-10T18:45:34.745Z,12.85
2023-01-10T18:48:05.687Z,11.78
2023-01-10T18:50:36.207Z,12.05
2023-01-10T18:53:07.091Z,12.53
2023-01-10T18:55:38.703Z,11.88
2023-01-10T18:58:10.635Z,13.05
2023-01-10T19:00:42.883Z,13.48
2023-01-10T19:03:13.450Z,14.07
2023-01-10T19:05:44.072Z,13.43
2023-01-10T19:08:14.834Z,13.18
2023-01-10T19:11:11.348Z,13.20
2023-01-10T19:13:18.651Z,13.62
2023-01-10T19:15:49.536Z,14.00
2023-01-10T19:18:20.177Z,13.60
2023-01-10T19:20:55.153Z,14.07
2023-01-10T19:23:25.708Z,13.93
2023-01-10T19:25:59.686Z,14.87
2023-01-10T19:28:30.935Z,16.00
2023-01-10T19:31:05.384Z,15.08
2023-01-10T19:33:34.930Z,14.98
2023-01-10T19:36:08.987Z,14.55
2023-01-10T19:38:39.549Z,16.00
2023-01-10T19:41:10.122Z,15.93
2023-01-10T19:43:40.777Z,16.23
2023-01-10T19:46:13.044Z,15.90
2023-01-10T19:48:43.636Z,15.13
2023-01-10T19:51:14.699Z,15.25
2023-01-10T19:53:46.735Z,16.82
2023-01-10T19:56:20.308Z,17.65
2023-01-10T19:58:51.671Z,17.35
2023-01-10T20:01:28.932Z,17.02
2023-01-10T20:04:02.328Z,16.10
2023-01-10T20:06:35.921Z,16.00
2023-01-10T20:09:06.992Z,16.27
2023-01-10T20:11:38.072Z,16.30
2023-01-10T20:14:10.992Z,16.67
2023-01-10T20:16:42.525Z,17.17
2023-01-10T20:19:15.836Z,17.65
2023-01-10T20:21:48.263Z,16.70
2023-01-10T20:24:23.399Z,15.85
2023-01-10T20:26:55.324Z,16.32
2023-01-10T20:29:28.649Z,16.70
2023-01-10T20:32:01.298Z,17.02
2023-01-10T20:34:35.090Z,15.28
2023-01-10T20:37:06.696Z,14.63
2023-01-10T20:39:38.963Z,15.18
2023-01-10T20:42:11.929Z,16.37
2023-01-10T20:44:45.027Z,15.35
2023-01-10T20:47:22.691Z,16.32
2023-01-10T20:49:54.763Z,17.10
2023-01-10T20:52:27.542Z,16.75
2023-01-10T20:54:59.230Z,17.07
2023-01-10T20:57:33.679Z,17.30
2023-01-10T21:00:04.806Z,17.25
2023-01-10T21:02:36.924Z,16.67
2023-01-10T21:05:09.995Z,15.55
2023-01-10T21:07:43.888Z,16.45
2023-01-10T21:10:16.030Z,15.13
2023-01-10T21:12:48.183Z,14.85
2023-01-10T21:15:19.722Z,15.03
2023-01-10T21:17:53.077Z,14.58
2023-01-10T21:20:23.771Z,17.05
2023-01-10T21:22:59.929Z,15.88
2023-01-10T21:25:33.851Z,16.30
2023-01-10T21:28:08.880Z,16.83
2023-01-10T21:30:41.237Z,16.57
2023-01-10T21:33:15.029Z,16.60
2023-01-10T21:35:57.114Z,16.12
2023-01-10T21:38:30.132Z,15.90
2023-01-10T21:41:17.882Z,16.02
2023-01-10T21:43:51.860Z,15.90
2023-01-10T21:48:57.146Z,15.83
2023-01-10T21:51:30.801Z,16.32
2023-01-10T21:54:02.464Z,17.75
2023-01-10T21:56:35.097Z,17.85
2023-01-10T21:59:07.240Z,18.48
2023-01-10T22:01:41.758Z,17.98
2023-01-10T22:04:16.208Z,18.17
2023-01-10T22:06:47.112Z,17.40
2023-01-10T22:09:20.658Z,16.05
2023-01-10T22:11:53.122Z,17.62
2023-01-10T22:14:25.983Z,16.80
2023-01-10T22:16:59.548Z,16.67
2023-01-10T22:19:30.753Z,16.50
2023-01-10T22:22:03.052Z,16.35
2023-01-10T22:24:35.960Z,15.65
2023-01-10T22:27:08.137Z,16.90
2023-01-10T22:29:42.305Z,18.98
2023-01-10T22:32:14.818Z,19.82
2023-01-10T22:34:48.078Z,19.95
2023-01-10T22:37:21.683Z,19.57
2023-01-10T22:39:52.977Z,20.17
2023-01-10T22:42:26.629Z,21.68
2023-01-10T22:45:00.596Z,21.12
2023-01-10T22:47:33.987Z,21.52
2023-01-10T22:50:05.645Z,20.10
2023-01-10T22:52:38.829Z,21.80
2023-01-10T22:55:11.014Z,21.42
2023-01-10T22:57:47.298Z,22.17
2023-01-10T23:00:23.764Z,21.20
2023-01-10T23:02:55.472Z,21.68
2023-01-10T23:05:27.230Z,21.87
2023-01-10T23:07:59.995Z,26.23
2023-01-10T23:10:31.802Z,27.62
2023-01-10T23:13:06.149Z,27.00
2023-01-10T23:15:38.725Z,27.30
2023-01-10T23:18:10.375Z,26.23
2023-01-10T23:20:41.373Z,35.95
2023-01-10T23:23:13.782Z,33.35
2023-01-10T23:25:46.284Z,36.77
2023-01-10T23:28:21.223Z,31.97
2023-01-10T23:30:55.887Z,30.30
2023-01-10T23:33:36.232Z,34.50
2023-01-10T23:36:07.501Z,33.38
2023-01-10T23:38:39.240Z,34.67
2023-01-10T23:41:09.757Z,35.48
2023-01-10T23:43:40.350Z,34.23
2023-01-10T23:46:11.050Z,34.88
2023-01-10T23:48:43.346Z,32.40
2023-01-10T23:51:14.447Z,30.35
2023-01-10T23:53:44.915Z,29.67
2023-01-10T23:56:16.139Z,28.30
2023-01-10T23:58:46.584Z,27.87
